createdAt,value
2019-05-14T00:00:48.819Z,58.21
2019-05-14T00:03:31.148Z,58.31
2019-05-14T00:05:58.023Z,58.50
2019-05-14T00:08:24.906Z,58.93
2019-05-14T00:10:52.585Z,58.44
2019-05-14T00:13:21.333Z,57.71
2019-05-14T00:15:48.057Z,57.99
2019-05-14T00:18:15.061Z,57.12
2019-05-14T00:20:42.109Z,57.72
2019-05-14T00:23:09.157Z,57.69
2019-05-14T00:25:35.936Z,58.59
2019-05-14T00:28:02.798Z,58.73
2019-05-14T00:30:31.662Z,59.23
2019-05-14T00:32:58.252Z,59.18
2019-05-14T00:35:25.589Z,60.10
2019-05-14T00:37:52.463Z,60.10
2019-05-14T00:40:21.894Z,59.04
2019-05-14T00:42:48.388Z,58.23
2019-05-14T00:45:15.871Z,57.18
2019-05-14T00:47:42.610Z,58.02
2019-05-14T00:50:11.228Z,58.17
2019-05-14T00:52:38.311Z,58.73
2019-05-14T00:55:07.082Z,59.69
2019-05-14T00:57:34.169Z,60.29
2019-05-14T01:00:01.250Z,59.75
2019-05-14T01:02:28.580Z,59.40
2019-05-14T01:04:55.475Z,58.77
2019-05-14T01:07:22.231Z,58.72
2019-05-14T01:09:49.201Z,58.03
2019-05-14T01:12:16.007Z,59.28
2019-05-14T01:14:43.105Z,59.57
2019-05-14T01:17:11.244Z,58.33
2019-05-14T01:19:38.371Z,57.75
2019-05-14T01:22:05.482Z,58.38
2019-05-14T01:24:32.403Z,58.79
2019-05-14T01:27:01.596Z,59.27
2019-05-14T01:29:31.462Z,58.87
2019-05-14T01:31:57.837Z,60.12
2019-05-14T01:34:24.584Z,60.27
2019-05-14T01:36:52.967Z,59.19
2019-05-14T01:39:21.327Z,58.67
2019-05-14T01:41:48.588Z,58.81
2019-05-14T01:44:15.329Z,59.05
2019-05-14T01:46:42.251Z,59.44
2019-05-14T01:49:09.043Z,59.39
2019-05-14T01:51:36.125Z,60.55
2019-05-14T01:54:03.353Z,61.87
2019-05-14T01:56:31.883Z,61.37
2019-05-14T01:58:58.968Z,62.27
2019-05-14T02:01:26.163Z,62.25
2019-05-14T02:03:52.928Z,62.20
2019-05-14T02:06:21.284Z,61.78
2019-05-14T02:08:48.324Z,62.13
2019-05-14T02:11:15.058Z,62.52
2019-05-14T02:13:44.228Z,63.09
2019-05-14T02:16:13.022Z,62.30
2019-05-14T02:18:41.645Z,63.14
2019-05-14T02:21:08.857Z,63.11
2019-05-14T02:23:36.103Z,63.40
2019-05-14T02:26:03.572Z,62.76
2019-05-14T02:28:31.524Z,62.27
2019-05-14T02:31:03.130Z,61.90
2019-05-14T02:33:30.637Z,62.67
2019-05-14T02:35:59.996Z,62.04
2019-05-14T02:38:29.643Z,61.36
2019-05-14T02:40:55.530Z,61.69
2019-05-14T02:43:22.277Z,62.78
2019-05-14T02:46:02.148Z,62.30
2019-05-14T02:48:20.221Z,62.07
2019-05-14T02:50:49.406Z,61.54
2019-05-14T02:53:15.690Z,61.50
2019-05-14T02:55:42.986Z,61.13
2019-05-14T02:58:10.157Z,62.02
2019-05-14T03:00:40.423Z,62.76
2019-05-14T03:03:05.932Z,62.22
2019-05-14T03:05:32.875Z,61.18
2019-05-14T03:08:00.239Z,61.10
2019-05-14T03:10:30.267Z,60.72
2019-05-14T03:12:59.063Z,60.36
2019-05-14T03:15:28.888Z,60.81
2019-05-14T03:17:54.774Z,62.50
2019-05-14T03:20:22.059Z,62.48
2019-05-14T03:23:01.789Z,62.47
2019-05-14T03:25:19.337Z,62.85
2019-05-14T03:27:49.594Z,62.57
2019-05-14T03:30:15.744Z,62.44
2019-05-14T03:32:43.412Z,63.06
2019-05-14T03:35:13.754Z,63.25
2019-05-14T03:37:39.762Z,64.16
2019-05-14T03:40:09.263Z,64.62
2019-05-14T03:42:39.642Z,65.03
2019-05-14T03:45:08.447Z,65.21
2019-05-14T03:47:34.901Z,65.37
2019-05-14T03:50:02.321Z,64.56
2019-05-14T03:52:29.630Z,63.54
2019-05-14T03:55:01.154Z,62.88
2019-05-14T03:57:25.515Z,63.42
2019-05-14T03:59:52.574Z,64.50
2019-05-14T04:02:20.069Z,64.28
2019-05-14T04:04:50.246Z,64.01
2019-05-14T04:07:19.570Z,64.18
2019-05-14T04:09:49.656Z,65.85
2019-05-14T04:12:19.597Z,65.09
2019-05-14T04:14:50.687Z,64.64
2019-05-14T04:17:32.442Z,64.04
2019-05-14T04:19:53.942Z,64.39
2019-05-14T04:22:22.426Z,64.23
2019-05-14T04:24:53.844Z,64.14
2019-05-14T04:27:23.540Z,64.65
2019-05-14T04:29:52.536Z,64.41
2019-05-14T04:32:20.240Z,64.89
2019-05-14T04:34:53.247Z,64.33
2019-05-14T04:37:20.590Z,64.36
2019-05-14T04:39:50.322Z,64.48
2019-05-14T04:42:20.036Z,64.75
2019-05-14T04:44:45.656Z,64.80
2019-05-14T04:47:27.617Z,64.10
2019-05-14T04:49:41.789Z,64.11
2019-05-14T04:52:10.068Z,64.19
2019-05-14T04:54:39.386Z,64.39
2019-05-14T04:57:09.861Z,65.27
2019-05-14T04:59:35.416Z,65.21
2019-05-14T05:02:02.854Z,65.50
2019-05-14T05:04:30.339Z,64.71
2019-05-14T05:06:59.234Z,65.62
2019-05-14T05:09:29.061Z,65.65
2019-05-14T05:11:54.870Z,65.53
2019-05-14T05:14:23.794Z,64.87
2019-05-14T05:16:50.321Z,64.53
2019-05-14T05:19:19.578Z,63.72
2019-05-14T05:21:47.983Z,63.61
2019-05-14T05:24:14.434Z,63.17
2019-05-14T05:26:41.230Z,62.95
2019-05-14T05:29:10.488Z,62.66
2019-05-14T05:31:38.122Z,62.53
2019-05-14T05:34:05.247Z,61.98
2019-05-14T05:36:32.465Z,61.74
2019-05-14T05:38:59.585Z,61.80
2019-05-14T05:41:28.250Z,61.55
2019-05-14T05:43:55.358Z,61.12
2019-05-14T05:46:22.262Z,60.56
2019-05-14T05:48:49.015Z,60.28
2019-05-14T05:51:18.415Z,59.82
2019-05-14T05:53:44.542Z,59.64
2019-05-14T05:56:11.429Z,59.29
2019-05-14T05:58:39.765Z,58.77
2019-05-14T06:01:09.718Z,58.39
2019-05-14T06:03:35.733Z,58.05
2019-05-14T06:06:03.796Z,57.68
2019-05-14T06:08:30.729Z,57.03
2019-05-14T06:10:59.185Z,56.42
2019-05-14T06:13:28.535Z,55.96
2019-05-14T06:15:54.964Z,55.34
2019-05-14T06:18:22.376Z,54.85
2019-05-14T06:20:49.546Z,54.25
2019-05-14T06:23:18.889Z,53.26
2019-05-14T06:25:48.888Z,53.19
2019-05-14T06:28:14.678Z,53.11
2019-05-14T06:30:41.685Z,53.13
2019-05-14T06:33:09.349Z,53.15
2019-05-14T06:35:39.371Z,52.90
2019-05-14T06:38:05.597Z,52.61
2019-05-14T06:40:32.768Z,52.43
2019-05-14T06:42:59.984Z,52.00
2019-05-14T06:45:29.185Z,51.73
2019-05-14T06:47:56.169Z,51.63
2019-05-14T06:50:22.926Z,51.01
2019-05-14T06:52:49.695Z,50.83
2019-05-14T06:55:18.059Z,50.59
2019-05-14T06:57:45.365Z,50.14
2019-05-14T07:00:13.120Z,50.02
2019-05-14T07:02:43.477Z,50.01
2019-05-14T07:05:09.001Z,50.06
2019-05-14T07:07:36.106Z,50.14
2019-05-14T07:10:08.774Z,50.12
2019-05-14T07:12:35.079Z,50.08
2019-05-14T07:15:03.528Z,49.99
2019-05-14T07:17:30.745Z,49.77
2019-05-14T07:19:58.227Z,49.58
2019-05-14T07:22:25.417Z,49.38
2019-05-14T07:24:52.343Z,49.05
2019-05-14T07:27:19.431Z,48.62
2019-05-14T07:29:48.994Z,48.41
2019-05-14T07:32:15.364Z,48.06
2019-05-14T07:34:43.452Z,47.75
2019-05-14T07:37:10.238Z,47.45
2019-05-14T07:39:38.562Z,46.92
2019-05-14T07:42:09.352Z,46.71
2019-05-14T07:44:35.655Z,46.44
2019-05-14T07:47:02.748Z,46.08
2019-05-14T07:49:29.522Z,45.83
2019-05-14T07:51:58.587Z,45.86
2019-05-14T07:54:25.082Z,45.64
2019-05-14T07:56:53.040Z,45.43
2019-05-14T07:59:20.221Z,45.01
2019-05-14T08:01:49.068Z,44.85
2019-05-14T08:04:19.767Z,44.36
2019-05-14T08:06:44.528Z,44.12
2019-05-14T08:09:11.762Z,43.70
2019-05-14T08:11:39.008Z,43.44
2019-05-14T08:14:05.877Z,43.75
2019-05-14T08:16:32.830Z,43.84
2019-05-14T08:19:00.260Z,43.80
2019-05-14T08:21:28.360Z,43.91
2019-05-14T08:23:59.365Z,43.60
2019-05-14T08:26:26.300Z,43.49
2019-05-14T08:28:53.554Z,43.31
2019-05-14T08:31:20.437Z,43.05
2019-05-14T08:33:48.854Z,43.16
2019-05-14T08:36:18.416Z,43.09
2019-05-14T08:38:46.620Z,42.69
2019-05-14T08:41:15.473Z,42.49
2019-05-14T08:43:42.707Z,42.08
2019-05-14T08:46:09.459Z,42.27
2019-05-14T08:48:38.787Z,42.09
2019-05-14T08:51:05.089Z,41.82
2019-05-14T08:53:31.971Z,41.48
2019-05-14T08:55:59.370Z,41.75
2019-05-14T08:58:27.458Z,41.84
2019-05-14T09:00:55.245Z,41.87
2019-05-14T09:03:22.056Z,42.28
2019-05-14T09:05:49.422Z,40.59
2019-05-14T09:08:18.973Z,40.62
2019-05-14T09:10:45.337Z,40.25
2019-05-14T09:13:12.551Z,39.76
2019-05-14T09:15:39.713Z,39.19
2019-05-14T09:18:11.290Z,38.93
2019-05-14T09:20:35.301Z,38.57
2019-05-14T09:23:02.292Z,38.51
2019-05-14T09:25:29.327Z,38.03
2019-05-14T09:27:58.625Z,37.76
2019-05-14T09:30:25.474Z,37.30
2019-05-14T09:32:52.354Z,36.41
2019-05-14T09:35:20.033Z,37.59
2019-05-14T09:37:50.974Z,38.00
2019-05-14T09:40:16.057Z,37.68
2019-05-14T09:42:43.189Z,37.46
2019-05-14T09:45:11.595Z,37.23
2019-05-14T09:47:39.182Z,36.48
2019-05-14T09:50:16.377Z,35.85
2019-05-14T09:52:39.137Z,36.07
2019-05-14T09:55:06.293Z,35.85
2019-05-14T09:57:33.188Z,35.72
2019-05-14T09:59:59.971Z,35.50
2019-05-14T10:02:26.758Z,35.20
2019-05-14T10:04:54.181Z,34.86
2019-05-14T10:07:20.934Z,34.37
2019-05-14T10:09:49.254Z,33.96
2019-05-14T10:12:16.543Z,33.35
2019-05-14T10:14:43.357Z,32.85
2019-05-14T10:17:10.446Z,32.35
2019-05-14T10:19:39.257Z,32.90
2019-05-14T10:22:08.278Z,32.99
2019-05-14T10:24:38.372Z,33.38
2019-05-14T10:27:08.990Z,33.28
2019-05-14T10:29:35.916Z,33.00
2019-05-14T10:32:02.975Z,32.56
2019-05-14T10:34:29.988Z,32.37
2019-05-14T10:36:59.065Z,32.13
2019-05-14T10:39:25.989Z,32.42
2019-05-14T10:41:52.767Z,32.33
2019-05-14T10:44:19.618Z,32.03
2019-05-14T10:46:46.874Z,30.80
2019-05-14T10:49:23.028Z,30.30
2019-05-14T10:51:43.151Z,29.20
2019-05-14T10:54:21.007Z,28.95
2019-05-14T10:56:39.655Z,28.43
2019-05-14T10:59:09.310Z,28.26
2019-05-14T11:01:35.539Z,28.21
2019-05-14T11:04:02.848Z,27.73
2019-05-14T11:06:30.219Z,27.79
2019-05-14T11:08:57.092Z,27.22
2019-05-14T11:11:26.293Z,26.66
2019-05-14T11:13:54.105Z,27.56
2019-05-14T11:16:24.648Z,27.27
2019-05-14T11:18:51.851Z,26.71
2019-05-14T11:21:26.028Z,26.41
2019-05-14T11:23:49.032Z,24.92
2019-05-14T11:26:18.485Z,26.27
2019-05-14T11:28:45.734Z,26.30
2019-05-14T11:31:13.062Z,26.36
2019-05-14T11:33:39.913Z,26.93
2019-05-14T11:36:09.378Z,27.53
2019-05-14T11:38:37.412Z,26.69
2019-05-14T11:41:05.127Z,27.06
2019-05-14T11:43:32.353Z,26.05
2019-05-14T11:45:59.541Z,25.38
2019-05-14T11:48:26.380Z,25.33
2019-05-14T11:50:53.640Z,25.25
2019-05-14T11:53:20.802Z,24.84
2019-05-14T11:55:50.292Z,23.42
2019-05-14T11:58:20.679Z,24.20
2019-05-14T12:00:47.746Z,24.13
2019-05-14T12:03:15.500Z,24.02
2019-05-14T12:05:42.659Z,23.86
2019-05-14T12:08:09.536Z,24.24
2019-05-14T12:10:38.676Z,23.77
2019-05-14T12:13:08.387Z,23.68
2019-05-14T12:15:35.061Z,23.36
2019-05-14T12:18:02.046Z,23.21
2019-05-14T12:20:29.776Z,23.49
2019-05-14T12:22:59.320Z,24.56
2019-05-14T12:25:29.197Z,25.45
2019-05-14T12:27:58.717Z,25.35
2019-05-14T12:30:25.457Z,25.02
2019-05-14T12:32:54.139Z,24.58
2019-05-14T12:35:21.913Z,24.82
2019-05-14T12:37:52.355Z,23.73
2019-05-14T12:40:20.097Z,25.45
2019-05-14T12:42:49.647Z,25.62
2019-05-14T12:45:19.127Z,25.38
2019-05-14T12:47:49.833Z,25.23
2019-05-14T12:50:15.348Z,25.18
2019-05-14T12:52:42.765Z,25.41
2019-05-14T12:55:10.433Z,25.14
2019-05-14T12:57:39.396Z,24.09
2019-05-14T13:00:08.982Z,24.34
2019-05-14T13:02:36.165Z,23.69
2019-05-14T13:05:09.046Z,23.28
2019-05-14T13:07:36.432Z,22.62
2019-05-14T13:10:09.168Z,22.54
2019-05-14T13:12:35.758Z,22.36
2019-05-14T13:15:05.074Z,22.98
2019-05-14T13:17:31.861Z,23.71
2019-05-14T13:19:59.080Z,24.17
2019-05-14T13:22:41.587Z,24.61
2019-05-14T13:24:54.773Z,24.90
2019-05-14T13:27:21.723Z,24.51
2019-05-14T13:29:49.114Z,23.66
2019-05-14T13:32:16.186Z,23.02
2019-05-14T13:34:48.642Z,22.82
2019-05-14T13:37:20.681Z,23.11
2019-05-14T13:39:52.748Z,22.60
2019-05-14T13:42:18.658Z,21.87
2019-05-14T13:44:46.189Z,21.25
2019-05-14T13:47:13.009Z,20.49
2019-05-14T13:49:39.885Z,21.83
2019-05-14T13:52:09.121Z,21.96
2019-05-14T13:54:35.735Z,22.25
2019-05-14T13:57:02.713Z,21.87
2019-05-14T13:59:29.506Z,21.59
2019-05-14T14:01:59.144Z,21.08
2019-05-14T14:04:25.557Z,21.02
2019-05-14T14:06:54.960Z,21.69
2019-05-14T14:09:22.959Z,22.49
2019-05-14T14:11:49.790Z,23.74
2019-05-14T14:14:19.921Z,24.41
2019-05-14T14:16:49.198Z,25.04
2019-05-14T14:19:18.620Z,25.27
2019-05-14T14:21:45.177Z,24.80
2019-05-14T14:24:12.122Z,24.29
2019-05-14T14:26:39.479Z,23.41
2019-05-14T14:29:09.917Z,23.09
2019-05-14T14:31:41.434Z,22.64
2019-05-14T14:34:08.917Z,22.20
2019-05-14T14:36:38.655Z,21.87
2019-05-14T14:39:06.289Z,22.19
2019-05-14T14:41:33.712Z,22.71
2019-05-14T14:44:00.613Z,23.05
2019-05-14T14:46:28.711Z,23.45
2019-05-14T14:48:58.950Z,23.87
2019-05-14T14:51:31.026Z,24.40
2019-05-14T14:54:02.591Z,25.37
2019-05-14T14:56:28.387Z,25.54
2019-05-14T14:58:55.367Z,25.44
2019-05-14T15:01:22.145Z,24.53
2019-05-14T15:03:50.085Z,23.68
2019-05-14T15:06:17.517Z,23.16
2019-05-14T15:08:44.297Z,23.01
2019-05-14T15:11:11.397Z,22.95
2019-05-14T15:13:39.051Z,22.21
2019-05-14T15:16:12.729Z,21.98
2019-05-14T15:18:38.495Z,21.53
2019-05-14T15:21:04.395Z,21.57
2019-05-14T15:23:31.988Z,22.11
2019-05-14T15:25:59.080Z,22.64
2019-05-14T15:28:26.074Z,24.04
2019-05-14T15:30:52.915Z,24.52
2019-05-14T15:33:20.276Z,25.30
2019-05-14T15:35:52.855Z,25.67
2019-05-14T15:38:20.269Z,25.92
2019-05-14T15:40:48.823Z,25.72
2019-05-14T15:43:19.218Z,26.11
2019-05-14T15:45:48.408Z,25.92
2019-05-14T15:48:15.485Z,25.54
2019-05-14T15:50:42.748Z,24.96
2019-05-14T15:53:11.270Z,25.05
2019-05-14T15:55:38.553Z,25.32
2019-05-14T15:58:05.306Z,25.17
2019-05-14T16:00:32.955Z,25.22
2019-05-14T16:03:00.377Z,24.78
2019-05-14T16:05:30.300Z,24.88
2019-05-14T16:08:00.407Z,25.10
2019-05-14T16:10:31.089Z,25.50
2019-05-14T16:12:56.019Z,25.75
2019-05-14T16:15:23.049Z,25.79
2019-05-14T16:18:05.917Z,25.89
2019-05-14T16:20:19.421Z,26.08
2019-05-14T16:22:46.730Z,26.00
2019-05-14T16:25:14.525Z,26.00
2019-05-14T16:27:41.447Z,26.01
2019-05-14T16:30:10.435Z,26.02
2019-05-14T16:32:39.389Z,25.94
2019-05-14T16:35:09.639Z,25.77
2019-05-14T16:37:38.857Z,25.62
2019-05-14T16:40:06.928Z,25.64
2019-05-14T16:42:33.806Z,25.82
2019-05-14T16:45:00.796Z,25.86
2019-05-14T16:47:28.621Z,25.85
2019-05-14T16:49:59.013Z,26.05
2019-05-14T16:52:25.159Z,26.24
2019-05-14T16:54:51.967Z,26.15
2019-05-14T16:57:18.846Z,26.17
2019-05-14T16:59:45.638Z,26.08
2019-05-14T17:02:13.905Z,26.12
2019-05-14T17:04:41.335Z,26.11
2019-05-14T17:07:09.543Z,26.20
2019-05-14T17:09:38.463Z,26.44
2019-05-14T17:12:05.746Z,26.77
2019-05-14T17:14:32.797Z,27.04
2019-05-14T17:17:01.333Z,27.47
2019-05-14T17:19:29.844Z,27.93
2019-05-14T17:21:59.261Z,28.14
2019-05-14T17:24:28.889Z,28.09
2019-05-14T17:26:55.031Z,28.08
2019-05-14T17:29:22.401Z,28.08
2019-05-14T17:31:49.520Z,28.12
2019-05-14T17:34:18.613Z,28.31
2019-05-14T17:36:48.216Z,28.48
2019-05-14T17:39:14.759Z,28.87
2019-05-14T17:41:42.218Z,28.71
2019-05-14T17:44:09.250Z,28.40
2019-05-14T17:46:36.370Z,28.36
2019-05-14T17:49:03.925Z,28.51
2019-05-14T17:51:30.762Z,28.70
2019-05-14T17:53:58.669Z,29.04
2019-05-14T17:56:25.759Z,29.16
2019-05-14T17:58:52.629Z,29.36
2019-05-14T18:01:19.664Z,29.39
2019-05-14T18:03:48.830Z,29.63
2019-05-14T18:06:18.949Z,29.82
2019-05-14T18:08:46.470Z,29.88
2019-05-14T18:11:13.413Z,29.76
2019-05-14T18:13:43.158Z,29.56
2019-05-14T18:16:10.065Z,29.54
2019-05-14T18:18:36.889Z,29.49
2019-05-14T18:21:04.069Z,29.49
2019-05-14T18:23:31.287Z,29.64
2019-05-14T18:26:04.841Z,29.61
2019-05-14T18:28:28.833Z,29.69
2019-05-14T18:30:58.571Z,29.99
2019-05-14T18:33:24.958Z,30.13
2019-05-14T18:35:52.193Z,30.21
2019-05-14T18:38:19.544Z,30.30
2019-05-14T18:40:49.541Z,30.48
2019-05-14T18:43:18.727Z,30.69
2019-05-14T18:45:47.957Z,30.91
2019-05-14T18:48:14.748Z,31.20
2019-05-14T18:50:41.540Z,31.57
2019-05-14T18:53:12.756Z,31.52
2019-05-14T18:55:38.614Z,31.50
2019-05-14T18:58:05.757Z,31.53
2019-05-14T19:00:35.758Z,31.66
2019-05-14T19:03:02.890Z,31.92
2019-05-14T19:05:29.900Z,32.25
2019-05-14T19:07:59.263Z,32.51
2019-05-14T19:10:28.696Z,32.54
2019-05-14T19:12:55.600Z,32.69
2019-05-14T19:15:22.625Z,32.98
2019-05-14T19:17:49.435Z,33.36
2019-05-14T19:20:19.072Z,33.52
2019-05-14T19:22:45.671Z,33.65
2019-05-14T19:25:13.218Z,33.96
2019-05-14T19:27:40.026Z,34.21
2019-05-14T19:30:08.446Z,34.59
2019-05-14T19:32:35.690Z,34.89
2019-05-14T19:35:08.644Z,34.93
2019-05-14T19:37:38.781Z,34.69
2019-05-14T19:40:09.233Z,34.65
2019-05-14T19:42:39.051Z,35.11
2019-05-14T19:45:08.505Z,35.49
2019-05-14T19:47:36.596Z,35.73
2019-05-14T19:50:08.874Z,36.49
2019-05-14T19:52:35.363Z,36.94
2019-05-14T19:55:05.373Z,37.50
2019-05-14T19:57:32.421Z,38.39
2019-05-14T19:59:59.275Z,39.00
2019-05-14T20:02:28.514Z,39.29
2019-05-14T20:04:55.582Z,39.54
2019-05-14T20:07:22.391Z,39.66
2019-05-14T20:09:49.253Z,40.14
2019-05-14T20:12:18.219Z,40.14
2019-05-14T20:14:48.844Z,40.43
2019-05-14T20:17:15.536Z,40.63
2019-05-14T20:19:42.813Z,42.19
2019-05-14T20:22:09.818Z,42.83
2019-05-14T20:24:41.178Z,43.10
2019-05-14T20:27:09.306Z,43.64
2019-05-14T20:29:34.542Z,43.75
2019-05-14T20:32:02.030Z,43.15
2019-05-14T20:34:29.486Z,43.59
2019-05-14T20:36:56.254Z,44.18
2019-05-14T20:39:23.131Z,44.66
2019-05-14T20:41:50.026Z,44.62
2019-05-14T20:44:18.970Z,44.68
2019-05-14T20:46:45.728Z,45.15
2019-05-14T20:49:12.531Z,45.16
2019-05-14T20:51:39.269Z,45.57
2019-05-14T20:54:08.768Z,46.47
2019-05-14T20:56:35.541Z,46.34
2019-05-14T20:59:02.444Z,46.39
2019-05-14T21:01:29.319Z,46.32
2019-05-14T21:03:56.335Z,46.44
2019-05-14T21:06:23.340Z,45.72
2019-05-14T21:08:50.533Z,45.41
2019-05-14T21:11:19.085Z,45.97
2019-05-14T21:13:50.061Z,46.44
2019-05-14T21:16:18.309Z,46.96
2019-05-14T21:18:45.208Z,46.68
2019-05-14T21:21:12.717Z,46.50
2019-05-14T21:23:39.645Z,46.42
2019-05-14T21:26:08.430Z,46.59
2019-05-14T21:28:35.350Z,46.61
2019-05-14T21:31:02.858Z,46.53
2019-05-14T21:33:30.424Z,47.09
2019-05-14T21:35:59.258Z,47.49
2019-05-14T21:38:28.552Z,48.05
2019-05-14T21:40:55.275Z,48.31
2019-05-14T21:43:22.827Z,48.12
2019-05-14T21:45:49.905Z,48.16
2019-05-14T21:48:19.615Z,48.25
2019-05-14T21:50:45.564Z,48.27
2019-05-14T21:53:12.988Z,48.23
2019-05-14T21:55:40.341Z,48.39
2019-05-14T21:58:09.087Z,48.78
2019-05-14T22:00:42.645Z,49.08
2019-05-14T22:03:10.477Z,49.74
2019-05-14T22:05:39.333Z,50.15
2019-05-14T22:08:08.656Z,49.88
2019-05-14T22:10:35.659Z,50.38
2019-05-14T22:13:02.814Z,50.62
2019-05-14T22:15:29.948Z,50.17
2019-05-14T22:17:58.746Z,51.16
2019-05-14T22:20:25.731Z,52.43
2019-05-14T22:22:52.648Z,52.42
2019-05-14T22:25:19.468Z,52.71
2019-05-14T22:27:48.338Z,52.37
2019-05-14T22:30:18.284Z,53.18
2019-05-14T22:32:44.943Z,54.01
2019-05-14T22:35:12.150Z,55.42
2019-05-14T22:37:39.422Z,57.03
2019-05-14T22:40:09.801Z,56.43
2019-05-14T22:42:39.038Z,56.80
2019-05-14T22:45:09.150Z,57.09
2019-05-14T22:47:39.973Z,55.75
2019-05-14T22:50:08.911Z,56.85
2019-05-14T22:52:38.596Z,56.84
2019-05-14T22:55:05.683Z,56.31
2019-05-14T22:57:32.577Z,55.43
2019-05-14T22:59:59.955Z,56.10
2019-05-14T23:02:28.455Z,56.42
2019-05-14T23:04:55.914Z,57.42
2019-05-14T23:07:22.716Z,57.45
2019-05-14T23:09:49.501Z,57.77
2019-05-14T23:12:16.789Z,57.49
2019-05-14T23:14:43.707Z,57.06
2019-05-14T23:17:10.506Z,56.86
2019-05-14T23:19:37.290Z,57.90
2019-05-14T23:22:04.535Z,58.77
2019-05-14T23:24:31.330Z,58.52
2019-05-14T23:26:58.608Z,59.24
2019-05-14T23:29:25.435Z,58.79
2019-05-14T23:31:52.251Z,57.84
2019-05-14T23:34:19.124Z,57.11
2019-05-14T23:36:48.174Z,57.63
2019-05-14T23:39:15.856Z,57.61
2019-05-14T23:41:43.508Z,58.27
2019-05-14T23:44:10.450Z,58.48
2019-05-14T23:46:37.655Z,58.80
2019-05-14T23:49:04.481Z,59.33
2019-05-14T23:51:31.267Z,60.16
2019-05-14T23:53:58.321Z,59.78
2019-05-14T23:56:25.134Z,59.86
2019-05-14T23:58:57.723Z,61.28
